Rehoboth Beach, Delaware
Current Conditions -  °F | °C
As of 2:54 AM on Sunday 23 Nov 2014 (Local Time) from KGED Reporting Station
Scattered Clouds Scattered Clouds  
Wind Chill: 30°   Ceiling: Unl
Heat Index: 36°   Visibility: 10mi
Dew Point: 27°   Wind: 7mph
Humidity: 70%   Direction: 200°SSW
Pressure: 30.26"   Gusts: NA
Location:  38.72°N, 75.08°W
Report Text: KGED 230754Z AUTO 20006KT 10SM SCT110 02/M03 A3026 RMK AO2 SLP248 T00221028
Loading
Personal Weather Stations






























Interactive Weather Map New forecast layout! Learn more

10-Day Weather Forecast

Advertisements
Track Severe Weather on mobile